sensor_id;sensor_type;location;lat;lon;timestamp;temperature;humidity
54126;DHT22;40360;52.992;6.796;2024-03-02T00:04:31;6.80;99.90
54126;DHT22;40360;52.992;6.796;2024-03-02T00:07:03;6.80;99.90
54126;DHT22;40360;52.992;6.796;2024-03-02T00:10:14;6.80;99.90
54126;DHT22;40360;52.992;6.796;2024-03-02T00:13:25;6.70;99.90
54126;DHT22;40360;52.992;6.796;2024-03-02T00:15:56;6.70;99.90
54126;DHT22;40360;52.992;6.796;2024-03-02T00:18:44;6.70;99.90
54126;DHT22;40360;52.992;6.796;2024-03-02T00:21:38;6.70;99.90
54126;DHT22;40360;52.992;6.796;2024-03-02T00:27:21;6.70;99.90
54126;DHT22;40360;52.992;6.796;2024-03-02T00:29:52;6.70;99.90
54126;DHT22;40360;52.992;6.796;2024-03-02T00:32:17;6.70;99.90
54126;DHT22;40360;52.992;6.796;2024-03-02T00:34:43;6.70;99.90
54126;DHT22;40360;52.992;6.796;2024-03-02T00:37:09;6.80;99.90
54126;DHT22;40360;52.992;6.796;2024-03-02T00:39:37;6.70;99.90
54126;DHT22;40360;52.992;6.796;2024-03-02T00:42:03;6.70;99.90
54126;DHT22;40360;52.992;6.796;2024-03-02T00:44:37;6.70;99.90
54126;DHT22;40360;52.992;6.796;2024-03-02T00:47:13;6.70;99.90
54126;DHT22;40360;52.992;6.796;2024-03-02T00:49:42;6.70;99.90
54126;DHT22;40360;52.992;6.796;2024-03-02T00:52:18;6.80;99.90
54126;DHT22;40360;52.992;6.796;2024-03-02T00:54:57;6.80;99.90
54126;DHT22;40360;52.992;6.796;2024-03-02T00:57:24;6.80;99.90
54126;DHT22;40360;52.992;6.796;2024-03-02T01:00:07;6.80;99.90
54126;DHT22;40360;52.992;6.796;2024-03-02T01:02:35;6.80;99.90
54126;DHT22;40360;52.992;6.796;2024-03-02T01:05:18;6.90;99.90
54126;DHT22;40360;52.992;6.796;2024-03-02T01:07:50;6.90;99.90
54126;DHT22;40360;52.992;6.796;2024-03-02T01:10:29;6.90;99.90
54126;DHT22;40360;52.992;6.796;2024-03-02T01:15:41;6.90;99.90
54126;DHT22;40360;52.992;6.796;2024-03-02T01:18:09;6.90;99.90
54126;DHT22;40360;52.992;6.796;2024-03-02T01:20:45;6.90;99.90
54126;DHT22;40360;52.992;6.796;2024-03-02T01:23:40;7.00;99.90
54126;DHT22;40360;52.992;6.796;2024-03-02T01:26:09;7.00;99.90
54126;DHT22;40360;52.992;6.796;2024-03-02T01:28:35;7.00;99.90
54126;DHT22;40360;52.992;6.796;2024-03-02T01:31:01;7.00;99.90
54126;DHT22;40360;52.992;6.796;2024-03-02T01:33:34;7.00;99.90
54126;DHT22;40360;52.992;6.796;2024-03-02T01:36:00;7.00;99.90
54126;DHT22;40360;52.992;6.796;2024-03-02T01:38:26;7.00;99.90
54126;DHT22;40360;52.992;6.796;2024-03-02T01:43:50;7.00;99.90
54126;DHT22;40360;52.992;6.796;2024-03-02T01:46:25;7.10;99.90
54126;DHT22;40360;52.992;6.796;2024-03-02T01:48:57;7.10;99.90
54126;DHT22;40360;52.992;6.796;2024-03-02T01:51:41;7.10;99.90
54126;DHT22;40360;52.992;6.796;2024-03-02T01:54:07;7.10;99.90
54126;DHT22;40360;52.992;6.796;2024-03-02T01:56:36;7.10;99.90
54126;DHT22;40360;52.992;6.796;2024-03-02T01:59:06;7.10;99.90
54126;DHT22;40360;52.992;6.796;2024-03-02T02:01:33;7.10;99.90
54126;DHT22;40360;52.992;6.796;2024-03-02T02:03:58;7.20;99.90
54126;DHT22;40360;52.992;6.796;2024-03-02T02:07:03;7.20;99.90
54126;DHT22;40360;52.992;6.796;2024-03-02T02:09:53;7.10;99.90
54126;DHT22;40360;52.992;6.796;2024-03-02T02:12:25;7.10;99.90
54126;DHT22;40360;52.992;6.796;2024-03-02T02:14:55;7.10;99.90
54126;DHT22;40360;52.992;6.796;2024-03-02T02:17:51;7.10;99.90
54126;DHT22;40360;52.992;6.796;2024-03-02T02:20:17;7.20;99.90
54126;DHT22;40360;52.992;6.796;2024-03-02T02:22:57;7.10;99.90
54126;DHT22;40360;52.992;6.796;2024-03-02T02:25:23;7.20;99.90
54126;DHT22;40360;52.992;6.796;2024-03-02T02:27:49;7.10;99.90
54126;DHT22;40360;52.992;6.796;2024-03-02T02:30:20;7.20;99.90
54126;DHT22;40360;52.992;6.796;2024-03-02T02:32:46;7.20;99.90
54126;DHT22;40360;52.992;6.796;2024-03-02T02:35:12;7.20;99.90
54126;DHT22;40360;52.992;6.796;2024-03-02T02:37:38;7.20;99.90
54126;DHT22;40360;52.992;6.796;2024-03-02T02:40:16;7.20;99.90
54126;DHT22;40360;52.992;6.796;2024-03-02T02:43:02;7.30;99.90
54126;DHT22;40360;52.992;6.796;2024-03-02T02:45:33;7.30;99.90
54126;DHT22;40360;52.992;6.796;2024-03-02T02:47:59;7.40;99.90
54126;DHT22;40360;52.992;6.796;2024-03-02T02:50:26;7.40;99.90
54126;DHT22;40360;52.992;6.796;2024-03-02T02:52:52;7.40;99.90
54126;DHT22;40360;52.992;6.796;2024-03-02T02:55:18;7.50;99.90
54126;DHT22;40360;52.992;6.796;2024-03-02T02:57:43;7.50;99.90
54126;DHT22;40360;52.992;6.796;2024-03-02T03:00:12;7.60;99.90
54126;DHT22;40360;52.992;6.796;2024-03-02T03:02:47;7.60;99.90
54126;DHT22;40360;52.992;6.796;2024-03-02T03:05:19;7.60;99.90
54126;DHT22;40360;52.992;6.796;2024-03-02T03:08:16;7.60;99.90
54126;DHT22;40360;52.992;6.796;2024-03-02T03:10:42;7.70;99.90
54126;DHT22;40360;52.992;6.796;2024-03-02T03:13:08;7.70;99.90
54126;DHT22;40360;52.992;6.796;2024-03-02T03:15:37;7.70;99.90
54126;DHT22;40360;52.992;6.796;2024-03-02T03:18:04;7.70;99.90
54126;DHT22;40360;52.992;6.796;2024-03-02T03:20:30;7.80;99.90
54126;DHT22;40360;52.992;6.796;2024-03-02T03:22:56;7.80;99.90
54126;DHT22;40360;52.992;6.796;2024-03-02T03:25:24;7.90;99.90
54126;DHT22;40360;52.992;6.796;2024-03-02T03:28:08;8.00;99.90
54126;DHT22;40360;52.992;6.796;2024-03-02T03:31:01;8.00;99.90
54126;DHT22;40360;52.992;6.796;2024-03-02T03:33:41;8.00;99.90
54126;DHT22;40360;52.992;6.796;2024-03-02T03:36:07;8.10;99.90
54126;DHT22;40360;52.992;6.796;2024-03-02T03:38:33;8.20;99.90
54126;DHT22;40360;52.992;6.796;2024-03-02T03:40:58;8.10;99.90
54126;DHT22;40360;52.992;6.796;2024-03-02T03:43:24;8.10;99.90
54126;DHT22;40360;52.992;6.796;2024-03-02T03:45:50;8.10;99.90
54126;DHT22;40360;52.992;6.796;2024-03-02T03:48:17;8.10;99.90
54126;DHT22;40360;52.992;6.796;2024-03-02T03:50:59;8.10;99.90
54126;DHT22;40360;52.992;6.796;2024-03-02T03:53:25;8.10;99.90
54126;DHT22;40360;52.992;6.796;2024-03-02T03:56:00;8.10;99.90
54126;DHT22;40360;52.992;6.796;2024-03-02T03:58:34;8.00;99.90
54126;DHT22;40360;52.992;6.796;2024-03-02T04:01:00;8.00;99.90
54126;DHT22;40360;52.992;6.796;2024-03-02T04:03:25;7.90;99.90
54126;DHT22;40360;52.992;6.796;2024-03-02T04:05:51;7.80;99.90
54126;DHT22;40360;52.992;6.796;2024-03-02T04:08:17;7.80;99.90
54126;DHT22;40360;52.992;6.796;2024-03-02T04:10:44;7.80;99.90
54126;DHT22;40360;52.992;6.796;2024-03-02T04:13:11;7.80;99.90
54126;DHT22;40360;52.992;6.796;2024-03-02T04:16:09;7.70;99.90
54126;DHT22;40360;52.992;6.796;2024-03-02T04:19:16;7.70;99.90
54126;DHT22;40360;52.992;6.796;2024-03-02T04:22:03;7.70;99.90
54126;DHT22;40360;52.992;6.796;2024-03-02T04:24:32;7.70;99.90
54126;DHT22;40360;52.992;6.796;2024-03-02T04:26:58;7.70;99.90
54126;DHT22;40360;52.992;6.796;2024-03-02T04:29:45;7.70;99.90
54126;DHT22;40360;52.992;6.796;2024-03-02T04:32:30;7.70;99.90
54126;DHT22;40360;52.992;6.796;2024-03-02T04:35:35;7.70;99.90
54126;DHT22;40360;52.992;6.796;2024-03-02T04:38:04;7.70;99.90
54126;DHT22;40360;52.992;6.796;2024-03-02T04:40:33;7.70;99.90
54126;DHT22;40360;52.992;6.796;2024-03-02T04:43:18;7.60;99.90
54126;DHT22;40360;52.992;6.796;2024-03-02T04:49:00;7.60;99.90
54126;DHT22;40360;52.992;6.796;2024-03-02T04:51:36;7.60;99.90
54126;DHT22;40360;52.992;6.796;2024-03-02T04:54:12;7.60;99.90
54126;DHT22;40360;52.992;6.796;2024-03-02T04:56:57;7.60;99.90
54126;DHT22;40360;52.992;6.796;2024-03-02T04:59:23;7.60;99.90
54126;DHT22;40360;52.992;6.796;2024-03-02T05:01:49;7.60;99.90
54126;DHT22;40360;52.992;6.796;2024-03-02T05:04:15;7.60;99.90
54126;DHT22;40360;52.992;6.796;2024-03-02T05:10:12;7.60;99.90
54126;DHT22;40360;52.992;6.796;2024-03-02T05:12:38;7.50;99.90
54126;DHT22;40360;52.992;6.796;2024-03-02T05:15:11;7.60;99.90
54126;DHT22;40360;52.992;6.796;2024-03-02T05:17:37;7.50;99.90
54126;DHT22;40360;52.992;6.796;2024-03-02T05:20:04;7.60;99.90
54126;DHT22;40360;52.992;6.796;2024-03-02T05:22:30;7.60;99.90
54126;DHT22;40360;52.992;6.796;2024-03-02T05:24:56;7.50;99.90
54126;DHT22;40360;52.992;6.796;2024-03-02T05:27:22;7.10;99.90
54126;DHT22;40360;52.992;6.796;2024-03-02T05:29:48;7.50;99.90
54126;DHT22;40360;52.992;6.796;2024-03-02T05:32:13;7.50;99.90
54126;DHT22;40360;52.992;6.796;2024-03-02T05:34:39;7.50;99.90
54126;DHT22;40360;52.992;6.796;2024-03-02T05:37:05;7.50;99.90
54126;DHT22;40360;52.992;6.796;2024-03-02T05:39:30;7.40;99.90
54126;DHT22;40360;52.992;6.796;2024-03-02T05:41:56;7.40;99.90
54126;DHT22;40360;52.992;6.796;2024-03-02T05:44:22;7.30;99.90
54126;DHT22;40360;52.992;6.796;2024-03-02T05:46:47;7.30;99.90
54126;DHT22;40360;52.992;6.796;2024-03-02T05:52:45;7.20;99.90
54126;DHT22;40360;52.992;6.796;2024-03-02T05:55:10;7.20;99.90
54126;DHT22;40360;52.992;6.796;2024-03-02T05:57:36;7.20;99.90
54126;DHT22;40360;52.992;6.796;2024-03-02T06:00:11;7.10;99.90
54126;DHT22;40360;52.992;6.796;2024-03-02T06:02:40;7.10;99.90
54126;DHT22;40360;52.992;6.796;2024-03-02T06:05:11;7.10;99.90
54126;DHT22;40360;52.992;6.796;2024-03-02T06:07:37;7.10;99.90
54126;DHT22;40360;52.992;6.796;2024-03-02T06:10:03;7.10;99.90
54126;DHT22;40360;52.992;6.796;2024-03-02T06:12:31;7.10;99.90
54126;DHT22;40360;52.992;6.796;2024-03-02T06:14:58;7.10;99.90
54126;DHT22;40360;52.992;6.796;2024-03-02T06:17:23;7.10;99.90
54126;DHT22;40360;52.992;6.796;2024-03-02T06:19:49;7.10;99.90
54126;DHT22;40360;52.992;6.796;2024-03-02T06:22:15;7.10;99.90
54126;DHT22;40360;52.992;6.796;2024-03-02T06:24:40;7.00;99.90
54126;DHT22;40360;52.992;6.796;2024-03-02T06:27:06;7.00;99.90
54126;DHT22;40360;52.992;6.796;2024-03-02T06:29:35;7.00;99.90
54126;DHT22;40360;52.992;6.796;2024-03-02T06:32:01;7.00;99.90
54126;DHT22;40360;52.992;6.796;2024-03-02T06:34:26;7.00;99.90
54126;DHT22;40360;52.992;6.796;2024-03-02T06:36:52;7.00;99.90
54126;DHT22;40360;52.992;6.796;2024-03-02T06:39:18;7.00;99.90
54126;DHT22;40360;52.992;6.796;2024-03-02T06:41:43;7.00;99.90
54126;DHT22;40360;52.992;6.796;2024-03-02T06:44:09;7.00;99.90
54126;DHT22;40360;52.992;6.796;2024-03-02T06:46:35;6.90;99.90
54126;DHT22;40360;52.992;6.796;2024-03-02T06:49:00;7.00;99.90
54126;DHT22;40360;52.992;6.796;2024-03-02T06:51:28;7.00;99.90
54126;DHT22;40360;52.992;6.796;2024-03-02T06:53:53;6.90;99.90
54126;DHT22;40360;52.992;6.796;2024-03-02T06:56:19;6.90;99.90
54126;DHT22;40360;52.992;6.796;2024-03-02T06:58:45;6.90;99.90
54126;DHT22;40360;52.992;6.796;2024-03-02T07:01:10;6.90;99.90
54126;DHT22;40360;52.992;6.796;2024-03-02T07:03:36;6.90;99.90
54126;DHT22;40360;52.992;6.796;2024-03-02T07:06:02;6.80;99.90
54126;DHT22;40360;52.992;6.796;2024-03-02T07:08:28;6.80;99.90
54126;DHT22;40360;52.992;6.796;2024-03-02T07:10:54;6.90;99.90
54126;DHT22;40360;52.992;6.796;2024-03-02T07:13:19;6.90;99.90
54126;DHT22;40360;52.992;6.796;2024-03-02T07:15:45;6.90;99.90
54126;DHT22;40360;52.992;6.796;2024-03-02T07:18:30;6.90;99.90
54126;DHT22;40360;52.992;6.796;2024-03-02T07:20:56;7.00;99.90
54126;DHT22;40360;52.992;6.796;2024-03-02T07:23:28;7.00;99.90
54126;DHT22;40360;52.992;6.796;2024-03-02T07:25:55;7.10;99.90
54126;DHT22;40360;52.992;6.796;2024-03-02T07:28:25;7.10;99.90
54126;DHT22;40360;52.992;6.796;2024-03-02T07:31:01;7.20;99.90
54126;DHT22;40360;52.992;6.796;2024-03-02T07:33:27;7.20;99.90
54126;DHT22;40360;52.992;6.796;2024-03-02T07:35:57;7.30;99.90
54126;DHT22;40360;52.992;6.796;2024-03-02T07:38:25;7.30;99.90
54126;DHT22;40360;52.992;6.796;2024-03-02T07:40:51;7.30;99.90
54126;DHT22;40360;52.992;6.796;2024-03-02T07:43:17;7.30;99.90
54126;DHT22;40360;52.992;6.796;2024-03-02T07:45:43;7.40;99.90
54126;DHT22;40360;52.992;6.796;2024-03-02T07:48:09;7.40;99.90
54126;DHT22;40360;52.992;6.796;2024-03-02T07:50:34;7.40;99.90
54126;DHT22;40360;52.992;6.796;2024-03-02T07:53:01;7.40;99.90
54126;DHT22;40360;52.992;6.796;2024-03-02T07:55:27;7.40;99.90
54126;DHT22;40360;52.992;6.796;2024-03-02T07:57:53;7.50;99.90
54126;DHT22;40360;52.992;6.796;2024-03-02T08:00:18;7.50;99.90
54126;DHT22;40360;52.992;6.796;2024-03-02T08:02:44;7.50;99.90
54126;DHT22;40360;52.992;6.796;2024-03-02T08:05:10;7.50;99.90
54126;DHT22;40360;52.992;6.796;2024-03-02T08:07:36;7.60;99.90
54126;DHT22;40360;52.992;6.796;2024-03-02T08:10:02;7.60;99.90
54126;DHT22;40360;52.992;6.796;2024-03-02T08:12:27;7.60;99.90
54126;DHT22;40360;52.992;6.796;2024-03-02T08:14:53;7.60;99.90
54126;DHT22;40360;52.992;6.796;2024-03-02T08:17:19;7.70;99.90
54126;DHT22;40360;52.992;6.796;2024-03-02T08:19:45;7.70;99.90
54126;DHT22;40360;52.992;6.796;2024-03-02T08:22:11;7.80;99.90
54126;DHT22;40360;52.992;6.796;2024-03-02T08:24:37;7.80;99.90
54126;DHT22;40360;52.992;6.796;2024-03-02T08:27:03;7.80;99.90
54126;DHT22;40360;52.992;6.796;2024-03-02T08:29:29;7.90;99.90
54126;DHT22;40360;52.992;6.796;2024-03-02T08:31:55;7.90;99.90
54126;DHT22;40360;52.992;6.796;2024-03-02T08:34:20;7.90;99.90
54126;DHT22;40360;52.992;6.796;2024-03-02T08:36:46;7.90;99.90
54126;DHT22;40360;52.992;6.796;2024-03-02T08:39:12;8.00;99.90
54126;DHT22;40360;52.992;6.796;2024-03-02T08:41:45;8.00;99.90
54126;DHT22;40360;52.992;6.796;2024-03-02T08:44:11;8.10;99.90
54126;DHT22;40360;52.992;6.796;2024-03-02T09:02:57;8.50;99.90
54126;DHT22;40360;52.992;6.796;2024-03-02T09:05:22;8.50;99.90
54126;DHT22;40360;52.992;6.796;2024-03-02T09:07:48;8.50;99.90
54126;DHT22;40360;52.992;6.796;2024-03-02T09:10:14;8.60;99.90
54126;DHT22;40360;52.992;6.796;2024-03-02T09:12:39;8.60;99.90
54126;DHT22;40360;52.992;6.796;2024-03-02T09:15:05;8.60;99.90
54126;DHT22;40360;52.992;6.796;2024-03-02T09:17:31;8.70;99.90
54126;DHT22;40360;52.992;6.796;2024-03-02T09:19:57;8.80;99.90
54126;DHT22;40360;52.992;6.796;2024-03-02T09:22:23;8.80;99.90
54126;DHT22;40360;52.992;6.796;2024-03-02T09:24:48;8.80;99.90
54126;DHT22;40360;52.992;6.796;2024-03-02T09:27:14;8.90;99.90
54126;DHT22;40360;52.992;6.796;2024-03-02T09:29:40;9.00;99.90
54126;DHT22;40360;52.992;6.796;2024-03-02T09:32:06;9.20;99.90
54126;DHT22;40360;52.992;6.796;2024-03-02T09:34:32;9.20;99.90
54126;DHT22;40360;52.992;6.796;2024-03-02T09:36:58;9.30;99.90
54126;DHT22;40360;52.992;6.796;2024-03-02T09:39:25;9.40;99.90
54126;DHT22;40360;52.992;6.796;2024-03-02T09:41:52;9.50;99.90
54126;DHT22;40360;52.992;6.796;2024-03-02T09:44:19;9.60;99.90
54126;DHT22;40360;52.992;6.796;2024-03-02T09:46:48;9.70;99.90
54126;DHT22;40360;52.992;6.796;2024-03-02T09:49:15;9.80;99.90
54126;DHT22;40360;52.992;6.796;2024-03-02T09:51:46;9.80;99.90
54126;DHT22;40360;52.992;6.796;2024-03-02T09:54:13;9.90;99.90
54126;DHT22;40360;52.992;6.796;2024-03-02T09:56:39;9.90;99.90
54126;DHT22;40360;52.992;6.796;2024-03-02T09:59:04;9.90;99.90
54126;DHT22;40360;52.992;6.796;2024-03-02T10:01:31;9.70;99.90
54126;DHT22;40360;52.992;6.796;2024-03-02T10:03:59;9.70;99.90
54126;DHT22;40360;52.992;6.796;2024-03-02T10:06:26;9.70;99.90
54126;DHT22;40360;52.992;6.796;2024-03-02T10:08:53;9.70;99.90
54126;DHT22;40360;52.992;6.796;2024-03-02T10:11:34;9.70;99.90
54126;DHT22;40360;52.992;6.796;2024-03-02T10:14:08;9.80;99.90
54126;DHT22;40360;52.992;6.796;2024-03-02T10:16:40;10.00;99.90
54126;DHT22;40360;52.992;6.796;2024-03-02T10:19:20;10.10;99.90
54126;DHT22;40360;52.992;6.796;2024-03-02T10:21:55;10.20;99.90
54126;DHT22;40360;52.992;6.796;2024-03-02T10:24:22;10.20;99.90
54126;DHT22;40360;52.992;6.796;2024-03-02T10:26:49;10.20;99.90
54126;DHT22;40360;52.992;6.796;2024-03-02T10:29:15;10.10;99.90
54126;DHT22;40360;52.992;6.796;2024-03-02T10:31:42;10.10;99.90
54126;DHT22;40360;52.992;6.796;2024-03-02T10:34:09;10.20;99.90
54126;DHT22;40360;52.992;6.796;2024-03-02T10:36:36;10.20;99.90
54126;DHT22;40360;52.992;6.796;2024-03-02T10:39:06;10.30;99.90
54126;DHT22;40360;52.992;6.796;2024-03-02T10:41:34;10.40;99.90
54126;DHT22;40360;52.992;6.796;2024-03-02T10:44:05;10.50;99.90
54126;DHT22;40360;52.992;6.796;2024-03-02T10:46:33;10.50;99.90
54126;DHT22;40360;52.992;6.796;2024-03-02T10:49:03;10.60;99.90
54126;DHT22;40360;52.992;6.796;2024-03-02T10:51:32;10.70;99.90
54126;DHT22;40360;52.992;6.796;2024-03-02T10:53:59;10.70;99.90
54126;DHT22;40360;52.992;6.796;2024-03-02T10:56:44;10.60;99.90
54126;DHT22;40360;52.992;6.796;2024-03-02T10:59:26;10.60;99.90
54126;DHT22;40360;52.992;6.796;2024-03-02T11:01:58;10.70;99.90
54126;DHT22;40360;52.992;6.796;2024-03-02T11:04:26;10.80;99.90
54126;DHT22;40360;52.992;6.796;2024-03-02T11:06:54;10.70;99.90
54126;DHT22;40360;52.992;6.796;2024-03-02T11:09:26;10.70;99.90
54126;DHT22;40360;52.992;6.796;2024-03-02T11:12:08;10.70;99.90
54126;DHT22;40360;52.992;6.796;2024-03-02T11:14:38;10.80;99.90
54126;DHT22;40360;52.992;6.796;2024-03-02T11:17:06;10.90;99.90
54126;DHT22;40360;52.992;6.796;2024-03-02T11:19:33;11.00;99.90
54126;DHT22;40360;52.992;6.796;2024-03-02T11:22:00;11.00;99.90
54126;DHT22;40360;52.992;6.796;2024-03-02T11:26:58;11.10;99.90
54126;DHT22;40360;52.992;6.796;2024-03-02T11:32:06;11.30;99.90
54126;DHT22;40360;52.992;6.796;2024-03-02T11:34:36;11.40;99.90
54126;DHT22;40360;52.992;6.796;2024-03-02T11:37:05;11.40;99.90
54126;DHT22;40360;52.992;6.796;2024-03-02T11:39:31;11.40;99.90
54126;DHT22;40360;52.992;6.796;2024-03-02T11:41:57;11.50;99.90
54126;DHT22;40360;52.992;6.796;2024-03-02T11:44:27;11.50;99.90
54126;DHT22;40360;52.992;6.796;2024-03-02T11:47:05;11.60;99.90
54126;DHT22;40360;52.992;6.796;2024-03-02T11:49:40;11.60;99.90
54126;DHT22;40360;52.992;6.796;2024-03-02T11:52:08;11.60;99.90
54126;DHT22;40360;52.992;6.796;2024-03-02T11:54:36;11.60;99.90
54126;DHT22;40360;52.992;6.796;2024-03-02T11:57:06;11.60;99.90
54126;DHT22;40360;52.992;6.796;2024-03-02T11:59:32;11.60;99.90
54126;DHT22;40360;52.992;6.796;2024-03-02T12:01:58;11.60;99.90
54126;DHT22;40360;52.992;6.796;2024-03-02T12:04:25;11.60;99.90
54126;DHT22;40360;52.992;6.796;2024-03-02T12:06:59;11.80;99.90
54126;DHT22;40360;52.992;6.796;2024-03-02T12:09:26;11.90;99.90
54126;DHT22;40360;52.992;6.796;2024-03-02T12:12:05;11.90;99.90
54126;DHT22;40360;52.992;6.796;2024-03-02T12:14:32;11.90;99.90
54126;DHT22;40360;52.992;6.796;2024-03-02T12:16:58;11.90;99.90
54126;DHT22;40360;52.992;6.796;2024-03-02T12:19:28;11.90;99.90
54126;DHT22;40360;52.992;6.796;2024-03-02T12:21:56;12.00;99.90
54126;DHT22;40360;52.992;6.796;2024-03-02T12:24:22;12.20;99.90
54126;DHT22;40360;52.992;6.796;2024-03-02T12:26:49;12.30;99.90
54126;DHT22;40360;52.992;6.796;2024-03-02T12:29:16;12.40;99.90
54126;DHT22;40360;52.992;6.796;2024-03-02T12:31:44;12.40;99.90
54126;DHT22;40360;52.992;6.796;2024-03-02T12:34:15;12.40;99.90
54126;DHT22;40360;52.992;6.796;2024-03-02T12:36:41;12.50;99.90
54126;DHT22;40360;52.992;6.796;2024-03-02T12:39:08;12.40;99.90
54126;DHT22;40360;52.992;6.796;2024-03-02T12:41:37;12.30;99.90
54126;DHT22;40360;52.992;6.796;2024-03-02T12:44:05;12.30;99.90
54126;DHT22;40360;52.992;6.796;2024-03-02T12:46:32;12.20;99.90
54126;DHT22;40360;52.992;6.796;2024-03-02T12:48:58;12.20;99.90
54126;DHT22;40360;52.992;6.796;2024-03-02T12:51:24;12.20;99.90
54126;DHT22;40360;52.992;6.796;2024-03-02T12:53:57;12.20;99.90
54126;DHT22;40360;52.992;6.796;2024-03-02T12:56:24;12.30;99.90
54126;DHT22;40360;52.992;6.796;2024-03-02T12:58:54;12.30;99.90
54126;DHT22;40360;52.992;6.796;2024-03-02T13:01:20;12.30;99.90
54126;DHT22;40360;52.992;6.796;2024-03-02T13:03:48;12.40;99.90
54126;DHT22;40360;52.992;6.796;2024-03-02T13:06:16;12.40;99.90
54126;DHT22;40360;52.992;6.796;2024-03-02T13:08:42;12.50;99.90
54126;DHT22;40360;52.992;6.796;2024-03-02T13:11:09;12.50;99.90
54126;DHT22;40360;52.992;6.796;2024-03-02T13:13:35;12.60;99.90
54126;DHT22;40360;52.992;6.796;2024-03-02T13:16:01;12.60;99.90
54126;DHT22;40360;52.992;6.796;2024-03-02T13:18:28;12.60;99.90
54126;DHT22;40360;52.992;6.796;2024-03-02T13:20:54;12.50;99.90
54126;DHT22;40360;52.992;6.796;2024-03-02T13:23:21;12.40;99.90
54126;DHT22;40360;52.992;6.796;2024-03-02T13:25:47;12.50;99.90
54126;DHT22;40360;52.992;6.796;2024-03-02T13:28:13;12.50;99.90
54126;DHT22;40360;52.992;6.796;2024-03-02T13:30:39;12.60;99.90
54126;DHT22;40360;52.992;6.796;2024-03-02T13:33:04;12.80;99.90
54126;DHT22;40360;52.992;6.796;2024-03-02T13:35:30;12.90;99.90
54126;DHT22;40360;52.992;6.796;2024-03-02T13:37:56;13.00;99.90
54126;DHT22;40360;52.992;6.796;2024-03-02T13:40:21;13.10;99.90
54126;DHT22;40360;52.992;6.796;2024-03-02T13:42:49;13.20;99.90
54126;DHT22;40360;52.992;6.796;2024-03-02T13:45:17;13.30;99.90
54126;DHT22;40360;52.992;6.796;2024-03-02T13:47:44;13.30;99.90
54126;DHT22;40360;52.992;6.796;2024-03-02T13:50:09;13.40;99.90
54126;DHT22;40360;52.992;6.796;2024-03-02T13:52:35;13.40;99.90
54126;DHT22;40360;52.992;6.796;2024-03-02T13:55:01;13.40;99.90
54126;DHT22;40360;52.992;6.796;2024-03-02T13:57:27;13.30;99.90
54126;DHT22;40360;52.992;6.796;2024-03-02T13:59:53;13.20;99.90
54126;DHT22;40360;52.992;6.796;2024-03-02T14:02:20;13.10;99.90
54126;DHT22;40360;52.992;6.796;2024-03-02T14:04:46;13.10;99.90
54126;DHT22;40360;52.992;6.796;2024-03-02T14:07:14;13.00;99.90
54126;DHT22;40360;52.992;6.796;2024-03-02T14:09:45;12.90;99.90
54126;DHT22;40360;52.992;6.796;2024-03-02T14:12:21;12.90;99.90
54126;DHT22;40360;52.992;6.796;2024-03-02T14:14:48;12.90;99.90
54126;DHT22;40360;52.992;6.796;2024-03-02T14:17:16;12.90;99.90
54126;DHT22;40360;52.992;6.796;2024-03-02T14:19:42;13.00;99.90
54126;DHT22;40360;52.992;6.796;2024-03-02T14:22:07;13.00;99.90
54126;DHT22;40360;52.992;6.796;2024-03-02T14:24:33;13.10;99.90
54126;DHT22;40360;52.992;6.796;2024-03-02T14:26:59;13.20;99.90
54126;DHT22;40360;52.992;6.796;2024-03-02T14:29:27;13.20;99.90
54126;DHT22;40360;52.992;6.796;2024-03-02T14:31:53;13.10;99.90
54126;DHT22;40360;52.992;6.796;2024-03-02T14:34:18;13.10;99.90
54126;DHT22;40360;52.992;6.796;2024-03-02T14:36:44;13.00;99.90
54126;DHT22;40360;52.992;6.796;2024-03-02T14:39:11;12.90;99.90
54126;DHT22;40360;52.992;6.796;2024-03-02T14:41:37;12.90;99.90
54126;DHT22;40360;52.992;6.796;2024-03-02T14:44:03;12.80;99.90
54126;DHT22;40360;52.992;6.796;2024-03-02T14:46:29;12.80;99.90
54126;DHT22;40360;52.992;6.796;2024-03-02T14:48:55;13.00;99.90
54126;DHT22;40360;52.992;6.796;2024-03-02T14:51:20;13.20;99.90
54126;DHT22;40360;52.992;6.796;2024-03-02T14:53:46;13.50;99.90
54126;DHT22;40360;52.992;6.796;2024-03-02T14:56:12;13.70;99.90
54126;DHT22;40360;52.992;6.796;2024-03-02T14:58:40;13.90;99.90
54126;DHT22;40360;52.992;6.796;2024-03-02T15:01:06;13.80;99.90
54126;DHT22;40360;52.992;6.796;2024-03-02T15:03:33;13.80;99.90
54126;DHT22;40360;52.992;6.796;2024-03-02T15:05:59;13.70;99.90
54126;DHT22;40360;52.992;6.796;2024-03-02T15:08:24;13.60;99.90
54126;DHT22;40360;52.992;6.796;2024-03-02T15:10:52;13.50;99.90
54126;DHT22;40360;52.992;6.796;2024-03-02T15:13:21;13.40;99.90
54126;DHT22;40360;52.992;6.796;2024-03-02T15:15:47;13.30;99.90
54126;DHT22;40360;52.992;6.796;2024-03-02T15:18:12;13.20;99.90
54126;DHT22;40360;52.992;6.796;2024-03-02T15:20:38;13.10;99.90
54126;DHT22;40360;52.992;6.796;2024-03-02T15:23:04;13.10;99.90
54126;DHT22;40360;52.992;6.796;2024-03-02T15:25:29;13.20;99.90
54126;DHT22;40360;52.992;6.796;2024-03-02T15:27:56;13.30;99.90
54126;DHT22;40360;52.992;6.796;2024-03-02T15:30:22;13.20;99.90
54126;DHT22;40360;52.992;6.796;2024-03-02T15:32:47;13.20;99.90
54126;DHT22;40360;52.992;6.796;2024-03-02T15:35:13;13.30;99.90
54126;DHT22;40360;52.992;6.796;2024-03-02T15:37:39;13.40;99.90
54126;DHT22;40360;52.992;6.796;2024-03-02T15:40:05;13.70;99.90
54126;DHT22;40360;52.992;6.796;2024-03-02T15:42:33;14.20;99.90
54126;DHT22;40360;52.992;6.796;2024-03-02T15:44:58;14.50;99.90
54126;DHT22;40360;52.992;6.796;2024-03-02T15:47:24;14.70;99.90
54126;DHT22;40360;52.992;6.796;2024-03-02T15:49:50;14.80;99.90
54126;DHT22;40360;52.992;6.796;2024-03-02T15:52:16;15.00;99.90
54126;DHT22;40360;52.992;6.796;2024-03-02T15:54:45;15.00;99.90
54126;DHT22;40360;52.992;6.796;2024-03-02T15:57:11;14.90;99.90
54126;DHT22;40360;52.992;6.796;2024-03-02T15:59:37;14.60;99.90
54126;DHT22;40360;52.992;6.796;2024-03-02T16:02:02;14.30;99.90
54126;DHT22;40360;52.992;6.796;2024-03-02T16:04:29;14.00;99.90
54126;DHT22;40360;52.992;6.796;2024-03-02T16:06:55;13.70;99.90
54126;DHT22;40360;52.992;6.796;2024-03-02T16:09:21;13.40;99.90
54126;DHT22;40360;52.992;6.796;2024-03-02T16:11:47;13.20;99.90
54126;DHT22;40360;52.992;6.796;2024-03-02T16:14:15;13.00;99.90
54126;DHT22;40360;52.992;6.796;2024-03-02T16:16:42;12.80;99.90
54126;DHT22;40360;52.992;6.796;2024-03-02T16:19:08;12.60;99.90
54126;DHT22;40360;52.992;6.796;2024-03-02T16:21:34;12.40;99.90
54126;DHT22;40360;52.992;6.796;2024-03-02T16:23:59;12.40;99.90
54126;DHT22;40360;52.992;6.796;2024-03-02T16:26:25;12.30;99.90
54126;DHT22;40360;52.992;6.796;2024-03-02T16:28:51;12.30;99.90
54126;DHT22;40360;52.992;6.796;2024-03-02T16:31:17;12.30;99.90
54126;DHT22;40360;52.992;6.796;2024-03-02T16:33:46;12.30;99.90
54126;DHT22;40360;52.992;6.796;2024-03-02T16:36:12;12.40;99.90